createdAt,value
2022-11-30T00:01:19.123Z,8.12
2022-11-30T00:03:46.206Z,7.98
2022-11-30T00:06:14.807Z,7.99
2022-11-30T00:08:41.528Z,7.97
2022-11-30T00:11:14.243Z,7.94
2022-11-30T00:13:40.982Z,7.90
2022-11-30T00:16:08.406Z,7.94
2022-11-30T00:18:35.782Z,7.98
2022-11-30T00:21:03.726Z,7.84
2022-11-30T00:23:34.704Z,7.89
2022-11-30T00:26:06.594Z,7.91
2022-11-30T00:28:33.759Z,7.88
2022-11-30T00:31:05.331Z,7.89
2022-11-30T00:33:33.522Z,8.02
2022-11-30T00:36:01.947Z,8.10
2022-11-30T00:38:28.825Z,8.04
2022-11-30T00:40:56.586Z,7.91
2022-11-30T00:43:23.886Z,8.01
2022-11-30T00:45:50.572Z,8.09
2022-11-30T00:48:17.255Z,8.14
2022-11-30T00:50:44.088Z,8.08
2022-11-30T00:53:10.720Z,8.18
2022-11-30T00:55:37.327Z,8.24
2022-11-30T00:58:04.031Z,8.08
2022-11-30T01:00:30.950Z,8.12
2022-11-30T01:02:59.371Z,8.10
2022-11-30T01:05:26.090Z,8.11
2022-11-30T01:07:52.830Z,8.05
2022-11-30T01:10:19.569Z,7.98
2022-11-30T01:12:46.186Z,8.01
2022-11-30T01:15:12.824Z,8.07
2022-11-30T01:17:39.606Z,8.09
2022-11-30T01:20:10.075Z,8.13
2022-11-30T01:22:36.767Z,7.88
2022-11-30T01:25:04.143Z,7.91
2022-11-30T01:27:30.771Z,7.96
2022-11-30T01:29:57.591Z,7.91
2022-11-30T01:32:24.190Z,7.88
2022-11-30T01:34:52.024Z,7.92
2022-11-30T01:37:18.725Z,7.93
2022-11-30T01:39:45.461Z,7.88
2022-11-30T01:42:18.056Z,7.86
2022-11-30T01:44:59.672Z,7.85
2022-11-30T01:47:39.737Z,8.05
2022-11-30T01:50:16.862Z,8.09
2022-11-30T01:52:46.284Z,8.12
2022-11-30T01:55:36.197Z,8.04
2022-11-30T01:58:11.874Z,7.87
2022-11-30T02:00:39.931Z,7.98
2022-11-30T02:03:36.493Z,8.08
2022-11-30T02:06:03.089Z,8.11
2022-11-30T02:08:30.990Z,8.07
2022-11-30T02:11:05.030Z,8.00
2022-11-30T02:13:40.755Z,7.89
2022-11-30T02:16:16.095Z,7.81
2022-11-30T02:18:59.334Z,7.75
2022-11-30T02:21:25.927Z,7.91
2022-11-30T02:24:10.601Z,8.18
2022-11-30T02:27:05.693Z,8.35
2022-11-30T02:29:41.360Z,7.78
2022-11-30T02:32:09.529Z,7.92
2022-11-30T02:34:37.642Z,7.85
2022-11-30T02:37:05.943Z,7.52
2022-11-30T02:39:32.718Z,7.42
2022-11-30T02:41:59.375Z,7.52
2022-11-30T02:44:26.406Z,7.62
2022-11-30T02:47:00.759Z,7.48
2022-11-30T02:49:43.999Z,7.46
2022-11-30T02:52:11.389Z,7.63
2022-11-30T02:54:38.249Z,7.57
2022-11-30T02:57:04.883Z,7.41
2022-11-30T02:59:31.775Z,7.42
2022-11-30T03:01:58.455Z,7.56
2022-11-30T03:04:25.241Z,7.52
2022-11-30T03:06:51.884Z,7.21
2022-11-30T03:09:18.559Z,7.16
2022-11-30T03:11:45.199Z,7.14
2022-11-30T03:14:11.865Z,7.18
2022-11-30T03:16:38.739Z,7.13
2022-11-30T03:19:05.679Z,7.17
2022-11-30T03:21:32.544Z,7.15
2022-11-30T03:23:59.163Z,7.11
2022-11-30T03:26:25.823Z,7.03
2022-11-30T03:28:52.510Z,7.07
2022-11-30T03:31:19.240Z,7.04
2022-11-30T03:33:45.921Z,7.16
2022-11-30T03:36:12.918Z,6.97
2022-11-30T03:38:39.916Z,6.95
2022-11-30T03:41:09.708Z,6.94
2022-11-30T03:43:36.448Z,6.94
2022-11-30T03:46:03.987Z,6.93
2022-11-30T03:48:31.529Z,7.21
2022-11-30T03:50:58.638Z,7.38
2022-11-30T03:53:25.864Z,7.18
2022-11-30T03:55:54.535Z,7.14
2022-11-30T03:58:21.849Z,7.19
2022-11-30T04:00:48.543Z,7.12
2022-11-30T04:03:15.871Z,6.93
2022-11-30T04:05:43.325Z,6.89
2022-11-30T04:08:09.963Z,6.96
2022-11-30T04:10:36.699Z,6.96
2022-11-30T04:13:03.391Z,6.97
2022-11-30T04:15:30.132Z,7.00
2022-11-30T04:17:56.793Z,6.88
2022-11-30T04:20:23.532Z,6.91
2022-11-30T04:22:50.229Z,6.91
2022-11-30T04:25:16.908Z,7.00
2022-11-30T04:27:46.396Z,7.12
2022-11-30T04:30:13.524Z,7.21
2022-11-30T04:32:40.139Z,7.24
2022-11-30T04:35:07.051Z,7.30
2022-11-30T04:37:33.717Z,7.23
2022-11-30T04:40:00.369Z,7.30
2022-11-30T04:42:27.008Z,7.05
2022-11-30T04:44:53.606Z,6.96
2022-11-30T04:47:20.165Z,6.94
2022-11-30T04:49:46.731Z,7.00
2022-11-30T04:52:13.442Z,7.16
2022-11-30T04:54:40.045Z,7.24
2022-11-30T04:57:06.892Z,7.24
2022-11-30T04:59:33.522Z,7.21
2022-11-30T05:02:00.175Z,7.18
2022-11-30T05:04:26.902Z,7.21
2022-11-30T05:06:53.620Z,7.29
2022-11-30T05:09:20.210Z,7.30
2022-11-30T05:11:48.563Z,7.33
2022-11-30T05:14:15.323Z,7.45
2022-11-30T05:16:41.962Z,7.49
2022-11-30T05:19:09.980Z,7.41
2022-11-30T05:21:40.051Z,7.31
2022-11-30T05:24:09.867Z,7.26
2022-11-30T05:26:37.046Z,7.17
2022-11-30T05:29:06.802Z,7.19
2022-11-30T05:31:33.915Z,7.11
2022-11-30T05:34:00.503Z,7.12
2022-11-30T05:36:27.422Z,7.14
2022-11-30T05:38:54.042Z,7.12
2022-11-30T05:41:20.625Z,7.09
2022-11-30T05:43:47.321Z,7.10
2022-11-30T05:46:13.973Z,7.02
2022-11-30T05:48:40.694Z,7.01
2022-11-30T05:51:15.639Z,6.96
2022-11-30T05:53:43.529Z,6.93
2022-11-30T05:56:12.811Z,7.04
2022-11-30T05:58:40.018Z,6.96
2022-11-30T06:01:07.200Z,7.07
2022-11-30T06:03:35.056Z,7.13
2022-11-30T06:06:01.944Z,7.03
2022-11-30T06:08:29.258Z,7.03
2022-11-30T06:11:00.338Z,7.17
2022-11-30T06:13:28.937Z,7.20
2022-11-30T06:15:59.162Z,7.19
2022-11-30T06:18:25.862Z,7.21
2022-11-30T06:20:52.579Z,6.94
2022-11-30T06:23:19.203Z,7.20
2022-11-30T06:25:45.783Z,7.02
2022-11-30T06:28:12.433Z,7.09
2022-11-30T06:30:39.107Z,7.22
2022-11-30T06:33:06.617Z,6.96
2022-11-30T06:35:33.197Z,6.94
2022-11-30T06:38:02.906Z,6.93
2022-11-30T06:40:29.544Z,7.18
2022-11-30T06:42:56.098Z,7.27
2022-11-30T06:45:22.750Z,7.44
2022-11-30T06:47:49.322Z,7.38
2022-11-30T06:50:15.995Z,7.09
2022-11-30T06:52:42.574Z,6.99
2022-11-30T06:55:09.617Z,6.94
2022-11-30T06:57:36.196Z,7.07
2022-11-30T07:00:03.854Z,7.19
2022-11-30T07:02:30.449Z,7.10
2022-11-30T07:04:57.044Z,7.10
2022-11-30T07:07:23.644Z,7.12
2022-11-30T07:09:51.043Z,6.98
2022-11-30T07:12:18.157Z,7.06
2022-11-30T07:14:44.961Z,7.26
2022-11-30T07:17:11.855Z,7.02
2022-11-30T07:19:38.413Z,6.98
2022-11-30T07:22:05.095Z,6.73
2022-11-30T07:24:50.442Z,6.79
2022-11-30T07:27:17.206Z,6.95
2022-11-30T07:29:43.949Z,6.89
2022-11-30T07:32:10.605Z,7.00
2022-11-30T07:34:37.264Z,6.96
2022-11-30T07:37:03.814Z,7.01
2022-11-30T07:39:30.430Z,7.05
2022-11-30T07:41:57.069Z,7.28
2022-11-30T07:44:28.188Z,7.22
2022-11-30T07:46:55.015Z,7.34
2022-11-30T07:49:21.585Z,7.29
2022-11-30T07:51:48.169Z,7.34
2022-11-30T07:54:14.838Z,7.34
2022-11-30T07:56:41.477Z,7.44
2022-11-30T07:59:08.142Z,7.42
2022-11-30T08:01:34.959Z,7.33
2022-11-30T08:04:01.797Z,7.13
2022-11-30T08:06:30.425Z,7.04
2022-11-30T08:09:02.347Z,7.05
2022-11-30T08:11:32.766Z,7.03
2022-11-30T08:14:00.146Z,7.27
2022-11-30T08:16:28.885Z,7.36
2022-11-30T08:18:56.896Z,7.24
2022-11-30T08:21:24.061Z,7.32
2022-11-30T08:23:56.531Z,7.12
2022-11-30T08:26:24.592Z,6.65
2022-11-30T08:28:52.649Z,6.60
2022-11-30T08:31:22.313Z,6.67
2022-11-30T08:33:49.919Z,6.78
2022-11-30T08:36:21.502Z,6.85
2022-11-30T08:38:48.687Z,7.04
2022-11-30T08:41:21.459Z,7.10
2022-11-30T08:43:48.977Z,7.10
2022-11-30T08:46:49.097Z,6.95
2022-11-30T08:54:42.768Z,6.67
2022-11-30T08:57:09.636Z,6.61
2022-11-30T08:59:36.387Z,6.51
2022-11-30T09:02:03.309Z,6.51
2022-11-30T09:04:30.161Z,6.32
2022-11-30T09:06:59.059Z,6.26
2022-11-30T09:09:25.994Z,6.18
2022-11-30T09:11:52.643Z,6.16
2022-11-30T09:14:19.261Z,6.08
2022-11-30T09:16:45.898Z,6.06
2022-11-30T09:19:12.729Z,6.08
2022-11-30T09:21:39.481Z,6.18
2022-11-30T09:24:06.304Z,6.13
2022-11-30T09:26:32.930Z,6.13
2022-11-30T09:29:00.133Z,6.14
2022-11-30T09:31:26.759Z,6.17
2022-11-30T09:33:56.168Z,6.19
2022-11-30T09:36:23.908Z,6.30
2022-11-30T09:38:50.678Z,6.27
2022-11-30T09:41:46.471Z,6.37
2022-11-30T09:44:24.819Z,6.43
2022-11-30T09:47:12.959Z,6.43
2022-11-30T09:49:48.781Z,6.41
2022-11-30T09:52:30.942Z,6.62
2022-11-30T09:54:57.952Z,6.83
2022-11-30T09:57:31.807Z,6.83
2022-11-30T10:00:00.475Z,6.91
2022-11-30T10:02:32.397Z,6.69
2022-11-30T10:04:59.751Z,6.73
2022-11-30T10:07:42.731Z,6.64
2022-11-30T10:10:37.958Z,6.57
2022-11-30T10:13:17.091Z,6.71
2022-11-30T10:16:02.440Z,6.91
2022-11-30T10:18:51.044Z,6.55
2022-11-30T10:21:26.723Z,6.65
2022-11-30T10:24:05.152Z,6.70
2022-11-30T10:26:41.578Z,6.72
2022-11-30T10:29:14.179Z,6.76
2022-11-30T10:31:41.876Z,6.73
2022-11-30T10:34:17.459Z,6.82
2022-11-30T10:36:53.900Z,6.90
2022-11-30T10:39:30.184Z,6.89
2022-11-30T10:42:10.394Z,6.83
2022-11-30T10:44:43.999Z,6.87
2022-11-30T10:47:16.315Z,6.90
2022-11-30T10:49:47.689Z,6.85
2022-11-30T10:52:19.272Z,6.73
2022-11-30T10:54:46.562Z,6.69
2022-11-30T10:57:14.497Z,6.77
2022-11-30T10:59:53.710Z,6.77
2022-11-30T11:02:49.881Z,6.78
2022-11-30T11:05:19.800Z,6.90
2022-11-30T11:08:06.897Z,7.00
2022-11-30T11:10:45.476Z,7.25
2022-11-30T11:13:35.428Z,7.22
2022-11-30T11:16:02.705Z,7.34
2022-11-30T11:18:31.773Z,7.46
2022-11-30T11:21:08.147Z,7.38
2022-11-30T11:23:42.291Z,7.43
2022-11-30T11:26:24.459Z,7.27
2022-11-30T11:28:53.443Z,7.25
2022-11-30T11:31:32.271Z,7.24
2022-11-30T11:33:58.935Z,7.11
2022-11-30T11:36:30.817Z,7.06
2022-11-30T11:38:58.396Z,7.03
2022-11-30T11:41:36.095Z,7.01
2022-11-30T11:44:11.854Z,7.02
2022-11-30T11:46:53.682Z,7.05
2022-11-30T11:49:28.541Z,7.15
2022-11-30T11:52:11.459Z,7.13
2022-11-30T11:54:51.603Z,7.13
2022-11-30T11:57:21.780Z,7.03
2022-11-30T11:59:55.568Z,7.07
2022-11-30T12:02:52.675Z,7.16
2022-11-30T12:05:29.404Z,7.21
2022-11-30T12:08:38.032Z,7.32
2022-11-30T12:11:20.063Z,7.35
2022-11-30T12:13:47.482Z,7.29
2022-11-30T12:16:39.093Z,7.22
2022-11-30T12:19:20.483Z,7.34
2022-11-30T12:21:58.986Z,7.32
2022-11-30T12:24:40.880Z,7.29
2022-11-30T12:27:53.540Z,7.29
2022-11-30T12:30:39.957Z,7.29
2022-11-30T12:33:29.149Z,7.38
2022-11-30T12:36:38.797Z,7.41
2022-11-30T12:39:15.595Z,7.44
2022-11-30T12:41:43.245Z,7.33
2022-11-30T12:44:28.840Z,7.40
2022-11-30T12:47:50.152Z,7.36
2022-11-30T12:50:44.224Z,7.21
2022-11-30T12:53:29.182Z,7.38
2022-11-30T12:56:15.054Z,7.36
2022-11-30T12:58:50.793Z,7.67
2022-11-30T13:01:35.726Z,7.88
2022-11-30T13:04:21.397Z,7.55
2022-11-30T13:06:53.614Z,7.36
2022-11-30T13:09:30.737Z,7.26
2022-11-30T13:12:02.185Z,7.22
2022-11-30T13:14:29.842Z,7.09
2022-11-30T13:17:01.632Z,7.07
2022-11-30T13:19:49.884Z,7.05
2022-11-30T13:22:23.740Z,6.91
2022-11-30T13:25:07.614Z,6.82
2022-11-30T13:27:43.299Z,6.83
2022-11-30T13:30:43.096Z,6.79
2022-11-30T13:33:37.772Z,6.81
2022-11-30T13:36:31.623Z,6.83
2022-11-30T13:39:13.514Z,6.88
2022-11-30T13:41:50.897Z,6.95
2022-11-30T13:44:32.267Z,6.95
2022-11-30T13:47:01.217Z,6.97
2022-11-30T13:49:34.528Z,6.96
2022-11-30T13:52:21.972Z,7.00
2022-11-30T13:54:51.141Z,6.88
2022-11-30T13:57:24.329Z,7.00
2022-11-30T13:59:51.768Z,7.03
2022-11-30T14:02:41.907Z,6.90
2022-11-30T14:05:17.918Z,6.90
2022-11-30T14:07:45.273Z,7.08
2022-11-30T14:10:27.171Z,6.89
2022-11-30T14:12:58.160Z,6.77
2022-11-30T14:15:39.453Z,6.77
2022-11-30T14:18:09.086Z,6.75
2022-11-30T14:20:46.470Z,6.74
2022-11-30T14:23:32.517Z,6.84
2022-11-30T14:26:11.610Z,7.10
2022-11-30T14:28:52.252Z,7.04
2022-11-30T14:31:23.221Z,7.15
2022-11-30T14:34:01.066Z,6.96
2022-11-30T14:36:34.440Z,6.92
2022-11-30T14:39:01.263Z,6.89
2022-11-30T14:41:30.129Z,6.85
2022-11-30T14:44:11.102Z,6.90
2022-11-30T14:46:37.743Z,6.91
2022-11-30T14:49:13.695Z,6.88
2022-11-30T14:51:42.804Z,6.95
2022-11-30T14:54:40.054Z,6.92
2022-11-30T14:57:14.934Z,6.99
2022-11-30T14:59:54.461Z,6.96
2022-11-30T15:02:26.641Z,6.99
2022-11-30T15:04:54.576Z,6.96
2022-11-30T15:07:22.193Z,6.92
2022-11-30T15:09:52.174Z,6.97
2022-11-30T15:12:20.905Z,6.96
2022-11-30T15:15:13.945Z,7.03
2022-11-30T15:17:53.965Z,6.96
2022-11-30T15:20:28.310Z,6.93
2022-11-30T15:22:57.066Z,6.94
2022-11-30T15:25:29.049Z,6.90
2022-11-30T15:27:56.190Z,6.97
2022-11-30T15:30:22.776Z,6.97
2022-11-30T15:32:52.341Z,7.00
2022-11-30T15:35:21.528Z,7.05
2022-11-30T15:37:48.430Z,7.04
2022-11-30T15:40:21.969Z,7.00
2022-11-30T15:42:49.384Z,6.97
2022-11-30T15:45:26.595Z,6.93
2022-11-30T15:47:54.915Z,6.94
2022-11-30T15:50:30.666Z,7.00
2022-11-30T15:53:02.917Z,6.91
2022-11-30T15:55:47.446Z,6.82
2022-11-30T15:58:29.315Z,6.80
2022-11-30T16:01:05.621Z,6.75
2022-11-30T16:03:34.401Z,6.78
2022-11-30T16:06:04.906Z,6.80
2022-11-30T16:08:32.378Z,6.75
2022-11-30T16:11:03.113Z,6.74
2022-11-30T16:13:32.947Z,6.91
2022-11-30T16:16:00.922Z,6.97
2022-11-30T16:18:28.392Z,7.01
2022-11-30T16:20:59.801Z,6.97
2022-11-30T16:23:27.067Z,7.04
2022-11-30T16:25:54.018Z,7.13
2022-11-30T16:28:21.886Z,7.07
2022-11-30T16:30:49.077Z,7.00
2022-11-30T16:33:21.363Z,7.01
2022-11-30T16:35:54.865Z,7.01
2022-11-30T16:38:22.116Z,7.04
2022-11-30T16:40:48.797Z,6.99
2022-11-30T16:43:15.515Z,6.97
2022-11-30T16:45:46.149Z,7.00
2022-11-30T16:48:14.186Z,6.87
2022-11-30T16:50:41.394Z,6.80
2022-11-30T16:53:11.698Z,6.72
2022-11-30T16:55:38.579Z,6.75
2022-11-30T16:58:05.504Z,6.83
2022-11-30T17:00:32.746Z,6.93
2022-11-30T17:03:03.928Z,6.81
2022-11-30T17:05:31.615Z,6.71
2022-11-30T17:07:58.303Z,6.65
2022-11-30T17:10:24.933Z,6.73
2022-11-30T17:12:51.630Z,6.67
2022-11-30T17:15:21.279Z,6.67
2022-11-30T17:17:48.292Z,6.62
2022-11-30T17:20:16.183Z,6.49
2022-11-30T17:22:43.947Z,6.56
2022-11-30T17:25:19.043Z,6.64
2022-11-30T17:27:45.996Z,6.59
2022-11-30T17:30:16.456Z,6.57
2022-11-30T17:32:43.286Z,6.55
2022-11-30T17:35:10.282Z,6.51
2022-11-30T17:37:36.820Z,6.53
2022-11-30T17:40:04.829Z,6.54
2022-11-30T17:42:31.459Z,6.46
2022-11-30T17:44:58.111Z,6.55
2022-11-30T17:47:24.986Z,6.51
2022-11-30T17:49:51.587Z,6.49
2022-11-30T17:52:18.274Z,6.55
2022-11-30T17:54:45.122Z,6.56
2022-11-30T17:57:11.933Z,6.62
2022-11-30T17:59:38.594Z,6.69
2022-11-30T18:02:05.299Z,6.55
2022-11-30T18:04:32.010Z,6.60
2022-11-30T18:06:58.615Z,7.21
2022-11-30T18:09:25.349Z,6.91
2022-11-30T18:11:52.035Z,6.62
2022-11-30T18:14:18.576Z,6.49
2022-11-30T18:16:45.395Z,6.45
2022-11-30T18:19:13.272Z,6.34
2022-11-30T18:21:41.258Z,6.65
2022-11-30T18:24:08.213Z,6.41
2022-11-30T18:26:35.574Z,6.41
2022-11-30T18:29:02.828Z,6.42
2022-11-30T18:31:30.812Z,6.43
2022-11-30T18:34:04.412Z,6.38
2022-11-30T18:36:32.406Z,6.38
2022-11-30T18:38:59.077Z,6.47
2022-11-30T18:41:26.343Z,6.45
2022-11-30T18:43:53.833Z,6.54
2022-11-30T18:46:20.820Z,6.58
2022-11-30T18:48:51.659Z,6.47
2022-11-30T18:51:23.999Z,6.52
2022-11-30T18:53:57.721Z,6.48
2022-11-30T18:56:26.630Z,6.45
2022-11-30T18:59:00.875Z,6.41
2022-11-30T19:01:28.616Z,6.55
2022-11-30T19:03:57.333Z,6.54
2022-11-30T19:06:32.625Z,6.62
2022-11-30T19:09:02.040Z,6.68
2022-11-30T19:11:28.615Z,6.47
2022-11-30T19:13:57.243Z,6.56
2022-11-30T19:16:24.996Z,7.28
2022-11-30T19:18:52.790Z,7.04
2022-11-30T19:21:22.013Z,6.83
2022-11-30T19:23:49.308Z,6.72
2022-11-30T19:26:16.259Z,6.59
2022-11-30T19:28:44.056Z,6.64
2022-11-30T19:31:16.480Z,6.65
2022-11-30T19:33:45.700Z,6.63
2022-11-30T19:36:31.334Z,6.71
2022-11-30T19:38:59.582Z,6.71
2022-11-30T19:41:27.030Z,6.60
2022-11-30T19:44:01.041Z,6.58
2022-11-30T19:46:31.716Z,6.62
2022-11-30T19:49:00.736Z,6.71
2022-11-30T19:51:28.315Z,6.57
2022-11-30T19:53:59.264Z,6.53
2022-11-30T19:56:26.851Z,6.44
2022-11-30T19:58:53.566Z,6.35
2022-11-30T20:01:25.299Z,6.35
2022-11-30T20:03:54.172Z,6.32
2022-11-30T20:06:23.450Z,6.31
2022-11-30T20:08:49.973Z,6.37
2022-11-30T20:11:16.669Z,6.44
2022-11-30T20:13:43.978Z,6.47
2022-11-30T20:16:12.909Z,6.58
2022-11-30T20:18:45.536Z,6.54
2022-11-30T20:21:17.893Z,6.62
2022-11-30T20:23:47.073Z,6.68
2022-11-30T20:26:14.385Z,6.76
2022-11-30T20:28:41.232Z,6.71
2022-11-30T20:31:09.241Z,6.58
2022-11-30T20:33:36.734Z,6.58
2022-11-30T20:36:08.702Z,6.69
2022-11-30T20:38:35.622Z,6.60
2022-11-30T20:41:02.549Z,6.64
2022-11-30T20:43:29.692Z,6.79
2022-11-30T20:45:56.855Z,6.82
2022-11-30T20:48:23.531Z,6.84
2022-11-30T20:51:21.717Z,6.66
2022-11-30T20:53:37.181Z,6.76
2022-11-30T20:56:04.137Z,6.82
2022-11-30T20:58:30.998Z,6.81
2022-11-30T21:00:59.445Z,6.71
2022-11-30T21:03:26.643Z,6.75
2022-11-30T21:05:53.337Z,6.63
2022-11-30T21:08:19.985Z,6.72
2022-11-30T21:10:46.622Z,6.68
2022-11-30T21:13:13.428Z,6.67
2022-11-30T21:15:40.048Z,6.63
2022-11-30T21:18:06.776Z,6.64
2022-11-30T21:20:35.755Z,6.64
2022-11-30T21:23:02.443Z,6.77
2022-11-30T21:25:29.119Z,6.82
2022-11-30T21:27:56.202Z,6.75
2022-11-30T21:30:22.875Z,6.71
2022-11-30T21:32:52.861Z,6.61
2022-11-30T21:35:19.547Z,6.62
2022-11-30T21:37:46.522Z,6.77
2022-11-30T21:40:13.414Z,6.70
2022-11-30T21:42:40.251Z,6.76
2022-11-30T21:45:07.459Z,6.70
2022-11-30T21:47:53.283Z,6.73
2022-11-30T21:50:24.414Z,6.74
2022-11-30T21:52:53.693Z,6.58
2022-11-30T21:55:20.409Z,6.57
2022-11-30T21:57:53.872Z,6.48
2022-11-30T22:00:21.290Z,6.48
2022-11-30T22:02:48.564Z,6.49
2022-11-30T22:05:15.478Z,6.44
2022-11-30T22:07:42.296Z,6.43
2022-11-30T22:10:09.443Z,6.45
2022-11-30T22:12:36.178Z,6.63
2022-11-30T22:15:02.802Z,6.81
2022-11-30T22:17:29.726Z,6.80
2022-11-30T22:19:56.583Z,6.90
2022-11-30T22:22:23.175Z,6.77
2022-11-30T22:24:49.812Z,6.57
2022-11-30T22:27:16.569Z,6.64
2022-11-30T22:29:43.106Z,6.41
2022-11-30T22:32:16.761Z,6.49
2022-11-30T22:34:43.539Z,6.38
2022-11-30T22:37:10.151Z,6.37
2022-11-30T22:39:36.995Z,6.20
2022-11-30T22:42:03.955Z,6.10
2022-11-30T22:44:30.633Z,6.12
2022-11-30T22:46:57.927Z,6.24
2022-11-30T22:49:24.748Z,6.19
2022-11-30T22:51:51.865Z,6.22
2022-11-30T22:54:18.588Z,6.25
2022-11-30T22:56:46.460Z,6.32
2022-11-30T22:59:14.226Z,6.32
2022-11-30T23:01:46.422Z,6.30
2022-11-30T23:04:16.057Z,6.34
2022-11-30T23:06:43.769Z,6.23
2022-11-30T23:09:16.315Z,6.29
2022-11-30T23:11:43.259Z,6.26
2022-11-30T23:14:12.014Z,6.28
2022-11-30T23:16:39.396Z,6.18
2022-11-30T23:19:06.828Z,6.25
2022-11-30T23:21:40.979Z,6.31
2022-11-30T23:24:12.368Z,6.28
2022-11-30T23:26:39.202Z,6.30
2022-11-30T23:29:08.693Z,6.21
2022-11-30T23:31:37.670Z,6.44
2022-11-30T23:34:09.617Z,6.52
2022-11-30T23:36:36.433Z,6.57
2022-11-30T23:39:06.223Z,6.42
2022-11-30T23:41:33.052Z,6.24
2022-11-30T23:43:59.863Z,6.32
2022-11-30T23:46:26.660Z,6.21
2022-11-30T23:48:54.941Z,6.11
2022-11-30T23:51:21.966Z,6.16
2022-11-30T23:53:48.898Z,6.26
2022-11-30T23:56:18.067Z,6.10
2022-11-30T23:58:45.240Z,6.08
